Time;durP1;ratioP1;P1;durP2;ratioP2;P2;SDS_P1;SDS_P2;PMS_P1;PMS_P2;Temp;Humidity;BMP_temperature;BMP_pressure;BME280_temperature;BME280_humidity;BME280_pressure;Samples;Min_cycle;Max_cycle;Signal;HPM_P1;HPM_P2
2022/08/16 00:01:34;;;;;;;6.00;3.03;;;18.30;94.10;;;;;;4999573;28;20104;-57
2022/08/16 00:04:00;;;;;;;3.25;2.95;;;18.30;94.40;;;;;;4998867;28;20062;-57
2022/08/16 00:06:28;;;;;;;2.92;2.58;;;18.20;94.70;;;;;;4995509;28;20034;-58
2022/08/16 00:08:53;;;;;;;4.43;3.25;;;18.10;94.70;;;;;;4999823;28;20048;-58
2022/08/16 00:11:20;;;;;;;3.88;2.92;;;18.10;95.50;;;;;;5004199;28;20030;-57
2022/08/16 00:13:47;;;;;;;5.53;2.17;;;18.10;95.20;;;;;;4998597;28;20099;-57
2022/08/16 00:16:13;;;;;;;2.58;2.38;;;18.00;94.70;;;;;;5000494;28;20033;-57
2022/08/16 00:18:39;;;;;;;2.50;2.30;;;18.00;95.20;;;;;;4999576;28;20033;-57
2022/08/16 00:21:04;;;;;;;3.42;2.08;;;18.10;95.70;;;;;;4993568;28;20030;-58
2022/08/16 00:23:30;;;;;;;7.95;2.20;;;18.20;95.60;;;;;;5003581;28;20358;-57
2022/08/16 00:25:56;;;;;;;2.40;2.17;;;18.30;95.40;;;;;;4998875;28;20026;-57
2022/08/16 00:28:22;;;;;;;3.90;2.33;;;18.30;95.40;;;;;;4996865;28;20089;-58
2022/08/16 00:30:48;;;;;;;6.10;2.60;;;18.30;95.60;;;;;;4996555;28;20375;-57
2022/08/16 00:33:14;;;;;;;6.72;2.58;;;18.30;95.40;;;;;;4995462;28;20026;-58
2022/08/16 00:35:40;;;;;;;2.85;2.55;;;18.30;95.50;;;;;;4997332;28;20400;-58
2022/08/16 00:38:06;;;;;;;3.45;2.25;;;18.30;95.50;;;;;;5002329;28;20497;-58
2022/08/16 00:40:45;;;;;;;3.05;2.20;;;18.30;95.40;;;;;;5000621;28;20022;-57
2022/08/16 00:43:19;;;;;;;3.38;2.40;;;18.20;95.40;;;;;;4998790;28;20018;-58
2022/08/16 00:46:20;;;;;;;6.95;2.08;;;18.20;95.70;;;;;;4992832;28;20026;-57
2022/08/16 00:48:49;;;;;;;4.10;2.45;;;18.20;95.70;;;;;;4995001;28;20053;-56
2022/08/16 00:51:17;;;;;;;4.43;2.05;;;18.20;95.50;;;;;;4997085;28;20042;-58
2022/08/16 00:53:43;;;;;;;2.47;2.28;;;18.10;95.90;;;;;;4999538;28;20571;-57
2022/08/16 00:56:13;;;;;;;6.55;2.40;;;18.10;95.80;;;;;;4998179;28;20058;-57
2022/08/16 00:58:44;;;;;;;3.40;2.47;;;18.10;95.90;;;;;;4994984;28;20038;-57
2022/08/16 01:01:11;;;;;;;3.05;2.22;;;18.10;96.00;;;;;;5010701;28;20018;-58
2022/08/16 01:03:38;;;;;;;2.85;2.58;;;18.10;96.30;;;;;;4997367;28;20033;-57
2022/08/16 01:06:05;;;;;;;7.25;2.42;;;18.10;96.30;;;;;;5000923;28;20038;-58
2022/08/16 01:08:34;;;;;;;3.72;2.92;;;18.10;96.40;;;;;;4999153;28;20449;-58
2022/08/16 01:11:00;;;;;;;3.17;2.88;;;18.10;96.10;;;;;;4992537;28;20037;-57
2022/08/16 01:13:29;;;;;;;2.95;2.75;;;18.10;96.30;;;;;;4994901;28;20018;-57
2022/08/16 01:16:19;;;;;;;2.83;2.55;;;18.10;96.30;;;;;;5001296;28;20026;-57
2022/08/16 01:19:17;;;;;;;7.82;2.40;;;18.10;96.90;;;;;;4991079;28;20041;-57
2022/08/16 01:21:51;;;;;;;3.22;2.60;;;18.00;96.50;;;;;;4968991;28;20034;-56
2022/08/16 01:24:35;;;;;;;4.05;2.30;;;17.90;97.00;;;;;;4994437;28;20354;-58
2022/08/16 01:27:14;;;;;;;5.57;2.38;;;17.90;97.40;;;;;;4996929;28;20042;-57
2022/08/16 01:29:57;;;;;;;3.60;2.28;;;17.80;97.50;;;;;;4995596;28;20035;-57
2022/08/16 01:32:23;;;;;;;3.35;2.28;;;17.70;98.00;;;;;;4999540;28;20405;-59
2022/08/16 01:34:49;;;;;;;2.25;1.98;;;17.70;98.40;;;;;;4998277;28;20702;-58
2022/08/16 01:37:14;;;;;;;2.45;2.03;;;17.70;99.10;;;;;;5002988;28;20026;-57
2022/08/16 01:39:42;;;;;;;2.17;1.95;;;17.70;99.00;;;;;;5001065;28;20029;-57
2022/08/16 01:42:09;;;;;;;3.17;2.50;;;17.60;99.20;;;;;;4997542;28;20026;-57
2022/08/16 01:44:35;;;;;;;2.22;1.98;;;17.60;99.30;;;;;;4995900;28;20026;-58
2022/08/16 01:47:02;;;;;;;2.85;2.28;;;17.60;99.80;;;;;;4996058;28;20458;-58
2022/08/16 01:49:32;;;;;;;2.47;2.03;;;17.60;99.50;;;;;;4996517;28;20022;-57
2022/08/16 01:52:09;;;;;;;3.23;2.20;;;17.60;99.40;;;;;;4997719;28;20107;-58
2022/08/16 01:54:35;;;;;;;3.25;2.03;;;17.50;99.90;;;;;;4999263;28;20291;-57
2022/08/16 01:57:02;;;;;;;2.38;2.17;;;17.50;99.60;;;;;;4998269;28;20031;-57
2022/08/16 01:59:28;;;;;;;3.50;2.25;;;17.50;99.90;;;;;;4997586;28;20026;-57
2022/08/16 02:01:55;;;;;;;4.25;2.40;;;17.40;99.90;;;;;;4997871;28;20030;-56
2022/08/16 02:04:24;;;;;;;3.40;1.90;;;17.40;99.90;;;;;;4998155;28;20022;-57
2022/08/16 02:06:50;;;;;;;3.42;2.30;;;17.30;99.90;;;;;;4999016;28;20089;-57
2022/08/16 02:09:18;;;;;;;5.32;2.35;;;17.30;99.90;;;;;;4995919;28;20038;-57
2022/08/16 02:11:47;;;;;;;4.32;2.03;;;17.20;99.90;;;;;;4991654;28;20161;-57
2022/08/16 02:14:13;;;;;;;3.70;2.17;;;17.20;99.90;;;;;;4998376;28;20045;-58
2022/08/16 02:16:41;;;;;;;2.58;2.22;;;17.10;99.90;;;;;;4996826;28;20038;-57
2022/08/16 02:19:07;;;;;;;3.60;2.33;;;17.00;99.90;;;;;;4996294;28;20030;-56
2022/08/16 02:21:33;;;;;;;2.55;2.10;;;17.00;99.90;;;;;;4993413;28;20410;-58
2022/08/16 02:23:59;;;;;;;6.28;2.30;;;16.90;99.90;;;;;;4992715;28;20026;-56
2022/08/16 02:26:25;;;;;;;3.95;2.75;;;16.80;99.90;;;;;;4995796;28;20037;-57
2022/08/16 02:28:51;;;;;;;2.55;2.30;;;16.70;99.90;;;;;;4999874;28;20421;-57
2022/08/16 02:31:17;;;;;;;5.78;3.03;;;16.70;99.90;;;;;;4996789;28;20380;-58
2022/08/16 02:33:44;;;;;;;3.45;3.20;;;16.60;99.90;;;;;;4997166;28;21790;-57
2022/08/16 02:36:11;;;;;;;3.75;3.45;;;16.60;99.90;;;;;;4997053;28;20038;-57
2022/08/16 02:38:38;;;;;;;3.90;3.53;;;16.60;99.90;;;;;;4995100;28;20054;-57
2022/08/16 02:41:04;;;;;;;4.70;2.78;;;16.50;99.90;;;;;;4995453;28;20520;-58
2022/08/16 02:43:31;;;;;;;2.90;2.67;;;16.50;99.90;;;;;;4995732;28;20026;-58
2022/08/16 02:45:57;;;;;;;4.43;2.97;;;16.50;99.90;;;;;;5013543;28;20018;-57
2022/08/16 02:48:24;;;;;;;3.10;2.63;;;16.50;99.90;;;;;;4994568;28;20672;-58
2022/08/16 02:50:50;;;;;;;7.53;3.88;;;16.50;99.90;;;;;;4991093;28;20517;-57
2022/08/16 02:53:16;;;;;;;3.13;2.80;;;16.50;99.90;;;;;;5001113;28;20089;-57
2022/08/16 02:55:42;;;;;;;5.43;3.72;;;16.50;99.90;;;;;;4999095;28;20033;-57
2022/08/16 02:58:08;;;;;;;3.28;3.03;;;16.40;99.90;;;;;;4999827;28;20030;-57
2022/08/16 03:00:34;;;;;;;4.30;4.00;;;16.40;99.90;;;;;;4995707;28;20552;-58
2022/08/16 03:02:59;;;;;;;3.78;3.45;;;16.30;99.90;;;;;;4998166;28;20049;-57
2022/08/16 03:05:25;;;;;;;5.13;3.30;;;16.30;99.90;;;;;;5001767;28;20030;-57
2022/08/16 03:07:51;;;;;;;5.70;3.05;;;16.30;99.90;;;;;;4999661;28;20029;-57
2022/08/16 03:10:18;;;;;;;3.25;2.95;;;16.30;99.90;;;;;;5001910;28;20389;-57
2022/08/16 03:12:45;;;;;;;3.72;3.25;;;16.30;99.90;;;;;;5003091;28;20028;-56
2022/08/16 03:15:13;;;;;;;3.08;2.75;;;16.30;99.90;;;;;;4995525;28;20045;-57
2022/08/16 03:17:39;;;;;;;4.70;3.40;;;16.20;99.90;;;;;;5002655;28;20042;-57
2022/08/16 03:20:07;;;;;;;4.05;3.22;;;16.20;99.90;;;;;;5001901;28;20040;-58
2022/08/16 03:22:34;;;;;;;4.15;2.97;;;16.20;99.90;;;;;;5000661;28;20030;-56
2022/08/16 03:25:03;;;;;;;4.13;3.35;;;16.20;99.90;;;;;;5005993;28;20069;-56
2022/08/16 03:27:30;;;;;;;2.90;2.70;;;16.20;99.90;;;;;;4998244;28;20050;-56
2022/08/16 03:29:56;;;;;;;3.72;2.67;;;16.20;99.90;;;;;;5000327;28;20493;-57
2022/08/16 03:32:22;;;;;;;4.93;2.83;;;16.20;99.90;;;;;;5001537;28;20053;-57
2022/08/16 03:34:47;;;;;;;3.65;2.60;;;16.20;99.90;;;;;;4998182;28;20064;-57
2022/08/16 03:37:13;;;;;;;3.22;2.92;;;16.20;99.90;;;;;;5002917;28;20389;-57
2022/08/16 03:39:41;;;;;;;3.70;2.85;;;16.10;99.90;;;;;;4997222;28;20054;-57
2022/08/16 03:42:10;;;;;;;3.55;3.25;;;16.10;99.90;;;;;;5000158;28;20109;-57
2022/08/16 03:44:35;;;;;;;4.05;3.58;;;16.20;99.90;;;;;;5011280;28;20034;-57
2022/08/16 03:47:01;;;;;;;3.90;3.55;;;16.20;99.90;;;;;;5000425;28;20027;-57
2022/08/16 03:49:27;;;;;;;3.75;3.45;;;16.20;99.90;;;;;;5001008;28;20484;-57
2022/08/16 03:51:53;;;;;;;5.95;3.40;;;16.30;99.90;;;;;;5004146;28;20626;-57
2022/08/16 03:54:19;;;;;;;3.42;3.13;;;16.30;99.90;;;;;;5000498;28;20053;-58
2022/08/16 03:56:44;;;;;;;4.32;3.50;;;16.30;99.90;;;;;;5001386;28;20038;-57
2022/08/16 03:59:10;;;;;;;4.00;3.13;;;16.30;99.90;;;;;;4990140;28;20429;-56
2022/08/16 04:01:36;;;;;;;4.25;3.83;;;16.20;99.90;;;;;;4992625;28;20362;-58
2022/08/16 04:04:01;;;;;;;4.18;3.78;;;16.20;99.90;;;;;;4997807;28;20528;-56
2022/08/16 04:06:27;;;;;;;3.70;3.00;;;16.20;99.90;;;;;;4997545;28;20066;-58
2022/08/16 04:08:53;;;;;;;4.20;3.80;;;16.10;99.90;;;;;;5001620;28;20604;-59
2022/08/16 04:11:18;;;;;;;3.30;2.75;;;16.10;99.90;;;;;;4998932;28;20038;-57
2022/08/16 04:13:46;;;;;;;4.22;3.83;;;16.10;99.90;;;;;;4998383;28;20038;-58
2022/08/16 04:16:12;;;;;;;5.88;3.70;;;16.10;99.90;;;;;;4999376;28;20073;-58
2022/08/16 04:18:41;;;;;;;4.30;3.90;;;16.10;99.90;;;;;;4996607;28;20431;-57
2022/08/16 04:21:07;;;;;;;6.03;5.15;;;16.10;99.90;;;;;;5001829;28;20026;-58
2022/08/16 04:23:33;;;;;;;5.40;4.63;;;16.00;99.90;;;;;;5002166;28;20076;-58
2022/08/16 04:25:58;;;;;;;8.63;4.75;;;16.10;99.90;;;;;;4999809;28;20033;-58
2022/08/16 04:28:25;;;;;;;4.82;4.43;;;16.10;99.90;;;;;;4996135;28;20029;-57
2022/08/16 04:30:51;;;;;;;4.30;3.90;;;16.10;99.90;;;;;;5001798;28;20022;-58
2022/08/16 04:33:17;;;;;;;4.18;3.47;;;16.20;99.90;;;;;;5001159;28;20370;-58
2022/08/16 04:35:42;;;;;;;4.25;3.95;;;16.30;99.90;;;;;;5003202;28;20486;-57
2022/08/16 04:38:08;;;;;;;3.90;3.60;;;16.30;99.90;;;;;;4997532;28;20038;-58
2022/08/16 04:40:34;;;;;;;4.53;3.95;;;16.40;99.90;;;;;;4994043;28;20389;-57
2022/08/16 04:43:00;;;;;;;4.07;3.78;;;16.40;99.90;;;;;;4998932;28;20478;-58
2022/08/16 04:45:26;;;;;;;5.93;4.32;;;16.40;99.90;;;;;;5001449;28;20036;-58
2022/08/16 04:47:52;;;;;;;4.18;3.78;;;16.50;99.90;;;;;;5002509;28;20049;-57
2022/08/16 04:50:23;;;;;;;3.60;3.30;;;16.60;99.90;;;;;;4997381;28;20389;-58
2022/08/16 04:52:50;;;;;;;3.70;3.35;;;16.60;99.90;;;;;;4992711;28;20117;-58
2022/08/16 04:55:22;;;;;;;5.15;4.13;;;16.70;99.90;;;;;;4994839;28;20033;-60
2022/08/16 04:57:50;;;;;;;4.20;3.80;;;16.70;99.90;;;;;;4994147;28;20569;-57
2022/08/16 05:00:22;;;;;;;6.20;4.20;;;16.80;99.90;;;;;;5000429;28;20106;-57
2022/08/16 05:02:50;;;;;;;4.43;3.83;;;16.90;99.90;;;;;;4995675;28;20119;-57
2022/08/16 05:05:16;;;;;;;3.25;2.95;;;17.00;99.90;;;;;;4994439;28;20023;-57
2022/08/16 05:07:42;;;;;;;3.55;3.25;;;17.20;99.90;;;;;;4998183;28;20037;-58
2022/08/16 05:10:09;;;;;;;3.20;2.90;;;17.60;99.90;;;;;;4998198;28;20021;-58
2022/08/16 05:12:36;;;;;;;3.55;3.05;;;18.40;99.90;;;;;;5003531;28;20806;-58
2022/08/16 05:15:03;;;;;;;4.25;2.47;;;19.40;99.90;;;;;;4997742;28;20121;-58
2022/08/16 05:17:30;;;;;;;3.00;2.50;;;20.40;99.90;;;;;;4993819;28;20038;-59
2022/08/16 05:19:56;;;;;;;5.25;3.03;;;21.60;99.90;;;;;;4994867;28;20050;-58
2022/08/16 05:22:22;;;;;;;3.17;2.35;;;22.80;97.30;;;;;;4997980;28;20025;-58
2022/08/16 05:24:48;;;;;;;7.65;2.88;;;23.90;88.20;;;;;;4998850;28;20034;-58
2022/08/16 05:27:14;;;;;;;5.55;2.88;;;24.80;82.70;;;;;;5001600;28;20042;-59
2022/08/16 05:29:40;;;;;;;2.80;2.50;;;25.60;77.10;;;;;;5000248;28;20038;-59
2022/08/16 05:32:06;;;;;;;3.15;2.17;;;26.30;73.70;;;;;;4994590;28;20026;-58
2022/08/16 05:34:31;;;;;;;4.93;2.70;;;26.90;71.80;;;;;;5002588;28;20061;-58
2022/08/16 05:36:57;;;;;;;8.25;2.25;;;27.70;68.90;;;;;;4998576;28;20397;-58
2022/08/16 05:39:24;;;;;;;3.38;2.05;;;28.60;63.90;;;;;;5000563;28;20564;-58
2022/08/16 05:41:51;;;;;;;2.50;1.75;;;29.40;61.70;;;;;;4998574;28;20027;-58
2022/08/16 05:44:18;;;;;;;4.93;2.03;;;30.10;59.20;;;;;;5000010;28;20023;-59
2022/08/16 05:46:44;;;;;;;4.57;2.20;;;30.40;57.70;;;;;;4996593;28;20077;-59
2022/08/16 05:49:15;;;;;;;4.07;2.22;;;30.50;57.00;;;;;;4998952;28;20022;-58
2022/08/16 05:51:43;;;;;;;3.30;2.10;;;30.30;56.90;;;;;;4997702;28;20497;-58
2022/08/16 05:54:11;;;;;;;4.47;1.98;;;30.10;56.90;;;;;;4996265;28;20054;-59
2022/08/16 05:56:36;;;;;;;2.15;1.80;;;30.50;56.30;;;;;;4993243;28;20030;-58
2022/08/16 05:59:03;;;;;;;2.38;1.50;;;30.00;56.50;;;;;;4994734;28;20096;-58
2022/08/16 06:01:29;;;;;;;4.35;1.90;;;29.30;57.30;;;;;;4997934;28;20030;-58
2022/08/16 06:03:54;;;;;;;3.78;2.58;;;28.90;58.50;;;;;;5000259;28;20026;-58
2022/08/16 06:06:20;;;;;;;1.92;1.70;;;28.50;59.40;;;;;;4997890;28;20021;-58
2022/08/16 06:08:46;;;;;;;2.70;1.85;;;28.90;59.50;;;;;;4998871;28;20034;-57
2022/08/16 06:11:11;;;;;;;3.15;1.90;;;29.10;58.70;;;;;;5001565;28;20386;-58
2022/08/16 06:13:37;;;;;;;4.43;1.63;;;29.20;58.30;;;;;;5000441;28;20034;-58
2022/08/16 06:16:04;;;;;;;4.50;1.88;;;29.00;58.80;;;;;;5000974;28;20026;-57
2022/08/16 06:18:30;;;;;;;2.78;2.05;;;29.80;57.80;;;;;;4997285;28;20023;-58
2022/08/16 06:20:56;;;;;;;2.10;1.73;;;30.40;56.40;;;;;;4992943;28;20026;-59
2022/08/16 06:23:22;;;;;;;3.03;1.98;;;30.50;55.30;;;;;;4995453;28;20684;-58
2022/08/16 06:25:48;;;;;;;1.83;1.70;;;30.60;55.20;;;;;;5000147;28;20038;-59
2022/08/16 06:28:13;;;;;;;1.75;1.50;;;30.90;54.60;;;;;;4995560;28;20041;-58
2022/08/16 06:30:40;;;;;;;1.83;1.63;;;31.40;53.90;;;;;;5002708;28;20088;-58
2022/08/16 06:33:06;;;;;;;2.85;1.70;;;31.80;53.00;;;;;;4996630;28;20026;-59
2022/08/16 06:35:31;;;;;;;3.20;2.00;;;32.00;51.70;;;;;;4999817;28;20453;-58
2022/08/16 06:37:57;;;;;;;3.72;1.70;;;32.20;51.50;;;;;;4997868;28;20520;-59
2022/08/16 06:40:23;;;;;;;2.25;1.83;;;32.20;51.60;;;;;;4997813;28;20034;-58
2022/08/16 06:42:51;;;;;;;2.45;1.70;;;31.40;52.90;;;;;;5003674;28;20040;-58
2022/08/16 06:45:17;;;;;;;3.83;2.03;;;31.00;53.80;;;;;;4997156;28;20034;-58
2022/08/16 06:47:43;;;;;;;2.28;2.00;;;30.80;53.60;;;;;;4998166;28;20125;-59
2022/08/16 06:50:09;;;;;;;2.03;1.90;;;30.50;54.80;;;;;;5001785;28;20436;-58
2022/08/16 06:52:35;;;;;;;2.45;1.60;;;30.70;53.90;;;;;;5003455;28;20112;-58
2022/08/16 06:55:05;;;;;;;1.70;1.60;;;31.00;53.60;;;;;;5003187;28;20529;-57
2022/08/16 06:57:31;;;;;;;2.15;1.60;;;31.80;52.70;;;;;;4998536;28;20088;-58
2022/08/16 06:59:57;;;;;;;2.13;1.70;;;32.50;51.10;;;;;;4995520;28;20023;-58
2022/08/16 07:02:23;;;;;;;5.18;1.92;;;32.70;50.60;;;;;;5001428;28;20545;-58
2022/08/16 07:04:48;;;;;;;2.03;1.55;;;32.50;50.40;;;;;;5003378;28;20032;-58
2022/08/16 07:07:14;;;;;;;2.75;1.67;;;32.90;50.50;;;;;;5002300;28;20050;-58
2022/08/16 07:09:40;;;;;;;2.53;1.95;;;33.00;49.20;;;;;;5004869;28;20024;-59
2022/08/16 07:12:06;;;;;;;2.40;2.00;;;32.40;50.00;;;;;;4998651;28;20097;-59
2022/08/16 07:14:32;;;;;;;1.75;1.40;;;32.70;50.90;;;;;;5001055;28;20030;-58
2022/08/16 07:16:59;;;;;;;3.63;1.85;;;33.50;50.30;;;;;;5004946;28;20447;-58
2022/08/16 07:19:27;;;;;;;2.08;1.80;;;34.60;48.30;;;;;;5003828;28;20022;-58
2022/08/16 07:21:52;;;;;;;2.03;1.80;;;33.80;47.60;;;;;;5000767;28;20151;-58
2022/08/16 07:24:19;;;;;;;3.38;1.77;;;34.00;48.70;;;;;;4996106;28;20027;-59
2022/08/16 07:26:44;;;;;;;3.08;1.65;;;34.60;47.30;;;;;;5001120;28;20504;-58
2022/08/16 07:29:10;;;;;;;3.17;1.67;;;35.00;46.70;;;;;;4997703;28;20034;-58
2022/08/16 07:31:36;;;;;;;2.55;1.65;;;35.80;45.40;;;;;;5000670;28;20397;-58
2022/08/16 07:34:01;;;;;;;1.50;1.40;;;35.00;45.60;;;;;;4999767;28;20022;-58
2022/08/16 07:36:27;;;;;;;1.75;1.48;;;34.90;46.10;;;;;;4996196;28;20081;-58
2022/08/16 07:38:53;;;;;;;7.72;1.85;;;35.40;45.50;;;;;;4998222;28;20030;-59
2022/08/16 07:41:18;;;;;;;3.45;2.00;;;35.50;44.30;;;;;;4999273;28;20028;-58
2022/08/16 07:43:45;;;;;;;2.13;1.45;;;34.70;45.40;;;;;;5001528;28;20417;-59
2022/08/16 07:46:11;;;;;;;4.40;1.90;;;35.10;46.80;;;;;;5002975;28;20369;-60
2022/08/16 07:48:36;;;;;;;1.70;1.60;;;35.40;45.30;;;;;;4997027;28;20458;-59
2022/08/16 07:51:02;;;;;;;2.08;1.88;;;34.90;44.80;;;;;;5000470;28;20038;-59
2022/08/16 07:53:30;;;;;;;2.45;1.55;;;34.20;46.80;;;;;;4999324;28;20121;-59
2022/08/16 07:55:58;;;;;;;2.45;1.45;;;35.10;46.80;;;;;;5001111;28;20026;-58
2022/08/16 07:58:25;;;;;;;3.35;1.80;;;35.70;44.80;;;;;;4994459;28;20089;-58
2022/08/16 08:00:51;;;;;;;2.22;1.70;;;36.80;43.10;;;;;;4996807;28;20029;-60
2022/08/16 08:03:17;;;;;;;1.90;1.50;;;37.30;43.10;;;;;;4999862;28;20030;-58
2022/08/16 08:05:43;;;;;;;1.40;1.30;;;37.80;41.30;;;;;;4996719;28;20133;-58
2022/08/16 08:08:10;;;;;;;2.35;1.50;;;37.70;41.30;;;;;;4997898;28;20025;-59
2022/08/16 08:10:35;;;;;;;4.22;1.70;;;38.60;40.70;;;;;;5000821;28;20486;-58
2022/08/16 08:13:01;;;;;;;7.00;1.60;;;38.20;39.80;;;;;;4994347;28;20029;-58
2022/08/16 08:15:27;;;;;;;3.05;1.50;;;37.80;40.30;;;;;;4994715;28;20564;-59
2022/08/16 08:17:53;;;;;;;1.30;1.20;;;38.30;39.80;;;;;;5002596;28;20038;-59
2022/08/16 08:20:21;;;;;;;1.55;1.45;;;39.00;40.10;;;;;;5000203;28;20039;-59
2022/08/16 08:22:50;;;;;;;2.53;1.15;;;38.60;38.40;;;;;;4997203;28;20113;-59
2022/08/16 08:25:17;;;;;;;1.65;1.25;;;39.30;40.10;;;;;;4997151;28;20018;-59
2022/08/16 08:27:42;;;;;;;2.08;1.60;;;39.30;37.80;;;;;;5006716;28;20026;-60
2022/08/16 08:30:09;;;;;;;1.40;1.27;;;39.20;39.20;;;;;;4998296;28;20524;-58
2022/08/16 08:32:36;;;;;;;2.17;1.42;;;39.80;39.40;;;;;;4997798;28;20041;-59
2022/08/16 08:35:03;;;;;;;2.35;1.30;;;40.10;37.20;;;;;;5000519;28;20556;-59
2022/08/16 08:37:29;;;;;;;2.53;1.40;;;40.30;37.30;;;;;;4998412;28;20474;-59
2022/08/16 08:39:54;;;;;;;2.45;1.30;;;40.70;36.70;;;;;;4997935;28;20041;-61
2022/08/16 08:42:20;;;;;;;1.83;1.42;;;40.80;36.70;;;;;;5000232;28;20037;-62
2022/08/16 08:44:46;;;;;;;3.45;1.60;;;40.70;36.50;;;;;;5000296;28;20064;-60
2022/08/16 08:47:11;;;;;;;2.92;1.33;;;40.00;35.80;;;;;;4998706;28;20481;-60
2022/08/16 08:49:38;;;;;;;9.32;1.35;;;40.40;36.50;;;;;;4996936;28;20478;-60
2022/08/16 08:52:04;;;;;;;2.60;1.50;;;40.90;37.20;;;;;;4997630;28;20034;-60
2022/08/16 08:54:31;;;;;;;1.48;1.27;;;41.60;36.00;;;;;;5001680;28;20119;-60
2022/08/16 08:56:56;;;;;;;3.17;1.50;;;41.80;35.30;;;;;;5001394;28;20041;-60
2022/08/16 08:59:22;;;;;;;5.13;1.50;;;41.30;34.50;;;;;;5000571;28;20028;-62
2022/08/16 09:01:49;;;;;;;2.88;1.52;;;39.10;36.20;;;;;;4996979;28;20513;-60
2022/08/16 09:04:15;;;;;;;3.78;1.48;;;39.10;38.40;;;;;;4995227;28;20034;-60
2022/08/16 09:06:42;;;;;;;2.42;1.30;;;38.70;39.00;;;;;;5000823;28;20113;-60
2022/08/16 09:09:08;;;;;;;2.95;1.20;;;38.70;39.80;;;;;;4999464;28;20034;-64
2022/08/16 09:11:35;;;;;;;1.50;1.20;;;38.70;38.80;;;;;;5001415;28;20096;-60
2022/08/16 09:14:01;;;;;;;3.63;1.50;;;39.40;38.70;;;;;;4994565;28;20044;-60
2022/08/16 09:16:27;;;;;;;1.50;1.20;;;38.40;38.20;;;;;;4995447;28;20030;-60
2022/08/16 09:18:54;;;;;;;2.55;1.40;;;38.30;39.00;;;;;;5003308;28;20052;-61
2022/08/16 09:21:20;;;;;;;2.20;1.50;;;38.10;38.60;;;;;;4998672;28;20022;-60
2022/08/16 09:23:46;;;;;;;1.60;1.20;;;39.00;39.00;;;;;;4994954;28;20108;-60
2022/08/16 09:26:16;;;;;;;2.58;1.38;;;39.50;38.60;;;;;;5000808;28;20438;-60
2022/08/16 09:28:43;;;;;;;;;;;40.10;37.50;;;;;;5002094;28;20034;-60
2022/08/16 09:31:09;;;;;;;3.00;1.55;;;40.20;37.00;;;;;;4999119;28;20320;-60
2022/08/16 09:33:35;;;;;;;1.30;1.20;;;40.00;37.30;;;;;;4997123;28;20034;-62
2022/08/16 09:36:01;;;;;;;3.03;1.20;;;39.80;37.30;;;;;;4997371;28;20026;-60
2022/08/16 09:38:27;;;;;;;3.33;1.15;;;38.70;37.10;;;;;;5000080;28;20464;-63
2022/08/16 09:40:56;;;;;;;3.45;1.20;;;38.60;38.30;;;;;;4990993;28;20053;-60
2022/08/16 09:43:23;;;;;;;3.13;1.60;;;37.70;38.10;;;;;;5001467;28;20065;-60
2022/08/16 09:45:49;;;;;;;1.85;1.45;;;36.70;41.90;;;;;;4996308;28;20022;-62
2022/08/16 09:48:15;;;;;;;3.78;1.63;;;36.30;41.90;;;;;;4999947;28;20029;-59
2022/08/16 09:50:43;;;;;;;2.75;1.42;;;36.00;43.20;;;;;;4996661;28;20088;-59
2022/08/16 09:53:12;;;;;;;5.13;1.42;;;36.10;43.00;;;;;;5002614;28;20038;-60
2022/08/16 09:55:39;;;;;;;2.75;1.33;;;36.40;43.00;;;;;;4998032;28;20030;-60
2022/08/16 09:58:05;;;;;;;1.58;1.40;;;36.30;42.00;;;;;;4995782;28;20390;-59
2022/08/16 10:00:31;;;;;;;3.80;1.75;;;35.90;43.30;;;;;;4998131;28;20030;-59
2022/08/16 10:02:57;;;;;;;1.88;1.70;;;35.00;42.70;;;;;;4995047;28;20117;-59
2022/08/16 10:05:23;;;;;;;3.50;1.55;;;34.50;44.20;;;;;;4996552;28;20113;-60
2022/08/16 10:07:52;;;;;;;6.03;1.63;;;33.70;46.10;;;;;;4997010;28;20031;-59
2022/08/16 10:10:22;;;;;;;2.20;1.73;;;33.50;45.90;;;;;;5000381;28;20029;-59
2022/08/16 10:15:34;;;;;;;2.92;1.80;;;33.50;45.80;;;;;;4996258;28;20037;-59
2022/08/16 10:18:06;;;;;;;2.30;1.48;;;34.00;44.80;;;;;;4992482;28;20058;-61
2022/08/16 10:20:35;;;;;;;2.72;1.30;;;34.30;44.60;;;;;;4998634;28;20034;-60
2022/08/16 10:23:03;;;;;;;2.22;1.70;;;34.30;44.80;;;;;;4997529;28;20053;-60
2022/08/16 10:25:29;;;;;;;5.35;1.65;;;34.20;44.70;;;;;;4996414;28;20474;-61
2022/08/16 10:27:55;;;;;;;2.65;1.88;;;33.60;45.70;;;;;;4995745;28;20019;-62
2022/08/16 10:30:21;;;;;;;2.67;1.80;;;33.00;46.90;;;;;;4992763;28;20023;-59
2022/08/16 10:32:49;;;;;;;2.80;1.42;;;32.60;47.30;;;;;;4994570;28;20058;-59
2022/08/16 10:35:15;;;;;;;3.92;1.85;;;32.10;47.90;;;;;;5003318;28;20130;-62
2022/08/16 10:37:41;;;;;;;2.00;1.80;;;31.50;47.60;;;;;;4997874;28;20128;-59
2022/08/16 10:40:09;;;;;;;3.63;1.60;;;31.50;47.80;;;;;;4997440;28;20030;-59
2022/08/16 10:42:35;;;;;;;3.63;1.60;;;31.70;48.70;;;;;;4992780;28;20632;-59
2022/08/16 10:45:01;;;;;;;1.77;1.40;;;32.50;46.80;;;;;;4995574;28;20121;-60
2022/08/16 10:47:28;;;;;;;4.82;1.70;;;33.50;46.60;;;;;;4996815;28;20034;-60
2022/08/16 10:49:54;;;;;;;2.28;1.58;;;34.90;43.40;;;;;;4995876;28;20042;-60
2022/08/16 10:52:21;;;;;;;2.40;1.33;;;35.40;40.80;;;;;;4994639;28;20077;-62
2022/08/16 10:54:47;;;;;;;2.28;1.35;;;35.70;41.50;;;;;;4998023;28;20045;-59
2022/08/16 10:57:13;;;;;;;2.42;1.50;;;36.00;41.20;;;;;;4999053;28;20561;-60
2022/08/16 10:59:40;;;;;;;2.35;1.50;;;36.10;41.50;;;;;;4996201;28;20121;-60
2022/08/16 11:02:07;;;;;;;3.67;1.50;;;36.20;41.20;;;;;;4999227;28;20031;-60
2022/08/16 11:04:33;;;;;;;4.38;1.50;;;36.10;40.00;;;;;;4996328;28;20027;-60
2022/08/16 11:06:59;;;;;;;2.90;1.30;;;35.90;40.30;;;;;;4995003;28;20018;-62
2022/08/16 11:09:25;;;;;;;2.30;1.45;;;35.60;41.40;;;;;;4995317;28;20811;-61
2022/08/16 11:11:50;;;;;;;1.83;1.40;;;35.70;41.50;;;;;;5000387;28;20058;-59
2022/08/16 11:14:17;;;;;;;4.70;1.98;;;36.20;40.10;;;;;;4997060;28;20037;-59
2022/08/16 11:16:43;;;;;;;3.63;1.30;;;36.90;40.20;;;;;;5000694;28;20432;-63
2022/08/16 11:19:09;;;;;;;4.40;1.30;;;37.70;39.10;;;;;;4999706;28;20106;-60
2022/08/16 11:21:38;;;;;;;2.15;1.38;;;38.10;37.50;;;;;;5001270;28;20026;-59
2022/08/16 11:24:04;;;;;;;1.20;1.13;;;38.40;37.60;;;;;;4999412;28;20030;-62
2022/08/16 11:26:30;;;;;;;1.80;1.20;;;38.70;37.90;;;;;;5000805;28;20871;-62
2022/08/16 11:28:57;;;;;;;1.75;1.40;;;39.10;37.60;;;;;;4999060;28;20026;-62
2022/08/16 11:31:23;;;;;;;1.95;1.52;;;39.20;36.80;;;;;;4999513;28;20018;-61
2022/08/16 11:33:49;;;;;;;1.80;1.33;;;37.80;36.60;;;;;;4996844;28;20022;-60
2022/08/16 11:36:15;;;;;;;1.45;1.27;;;37.80;38.70;;;;;;4999553;28;20023;-60
2022/08/16 11:38:41;;;;;;;2.40;1.50;;;37.60;38.20;;;;;;5000148;28;20362;-59
2022/08/16 11:41:07;;;;;;;2.13;1.45;;;37.30;37.70;;;;;;4998905;28;20117;-59
2022/08/16 11:43:36;;;;;;;1.88;1.38;;;36.90;38.70;;;;;;4995153;28;20026;-60
2022/08/16 11:46:07;;;;;;;3.28;1.50;;;36.50;39.20;;;;;;4998432;28;20179;-59
2022/08/16 11:48:33;;;;;;;3.00;1.55;;;35.80;40.20;;;;;;5005567;28;20029;-62
2022/08/16 11:51:00;;;;;;;2.45;1.30;;;35.40;40.50;;;;;;4999924;28;20034;-59
2022/08/16 11:53:27;;;;;;;3.05;1.25;;;35.20;41.20;;;;;;4999410;28;20026;-60
2022/08/16 11:55:53;;;;;;;4.13;1.20;;;35.40;40.30;;;;;;4997249;28;20665;-61
2022/08/16 11:58:21;;;;;;;2.33;1.42;;;35.80;40.60;;;;;;4995874;28;20076;-61
2022/08/16 12:00:47;;;;;;;2.13;1.20;;;36.10;40.30;;;;;;5001943;28;20018;-62
2022/08/16 12:03:14;;;;;;;2.38;1.42;;;36.30;40.20;;;;;;4998628;28;20050;-63
2022/08/16 12:05:42;;;;;;;1.92;1.30;;;36.70;38.90;;;;;;4999954;28;20188;-59
2022/08/16 12:08:09;;;;;;;2.45;1.40;;;36.80;38.80;;;;;;4995838;28;20049;-60
2022/08/16 12:10:37;;;;;;;2.38;1.20;;;36.70;38.30;;;;;;4997830;28;20588;-59
2022/08/16 12:13:07;;;;;;;3.33;1.20;;;36.60;38.50;;;;;;5003183;28;20023;-60
2022/08/16 12:15:33;;;;;;;4.32;1.33;;;36.40;38.30;;;;;;4999778;28;20036;-61
2022/08/16 12:17:59;;;;;;;1.85;1.30;;;36.20;39.00;;;;;;5002644;28;20037;-60
2022/08/16 12:20:30;;;;;;;2.47;1.60;;;36.10;39.20;;;;;;4996203;28;20121;-59
2022/08/16 12:22:56;;;;;;;2.53;1.40;;;35.90;39.30;;;;;;4998158;28;20026;-59
2022/08/16 12:25:24;;;;;;;3.35;1.50;;;35.70;40.00;;;;;;4997894;28;20061;-59
2022/08/16 12:27:51;;;;;;;2.28;1.60;;;35.60;40.10;;;;;;5000281;28;20031;-59
2022/08/16 12:30:21;;;;;;;2.65;1.50;;;35.40;40.30;;;;;;4998357;28;20037;-62
2022/08/16 12:32:47;;;;;;;;;;;35.20;40.70;;;;;;4998598;28;20529;-60
2022/08/16 12:35:17;;;;;;;2.67;1.60;;;35.10;40.90;;;;;;4997030;28;19914;-61
2022/08/16 12:37:44;;;;;;;;;;;35.00;40.90;;;;;;5001327;28;20034;-62
2022/08/16 12:40:14;;;;;;;1.90;1.30;;;34.90;41.20;;;;;;4996972;28;19910;-59
2022/08/16 12:42:40;;;;;;;2.88;1.70;;;35.10;41.50;;;;;;5001450;28;20046;-61
2022/08/16 12:45:10;;;;;;;2.13;1.45;;;35.40;41.00;;;;;;4996289;28;20513;-59
2022/08/16 12:50:20;;;;;;;1.98;1.30;;;36.00;38.00;;;;;;5000882;28;20076;-59
2022/08/16 12:52:47;;;;;;;1.58;1.30;;;36.10;37.30;;;;;;5001450;28;20035;-61